createdAt,value
2023-03-16T00:00:51.263Z,101312.53
2023-03-16T00:03:22.699Z,101303.56
2023-03-16T00:05:54.528Z,101314.16
2023-03-16T00:08:25.987Z,101319.47
2023-03-16T00:10:57.324Z,101319.59
2023-03-16T00:13:29.474Z,101323.13
2023-03-16T00:16:04.306Z,101322.31
2023-03-16T00:18:39.020Z,101333.81
2023-03-16T00:21:10.809Z,101330.44
2023-03-16T00:23:42.449Z,101304.75
2023-03-16T00:26:13.762Z,101300.63
2023-03-16T00:28:45.035Z,101310.59
2023-03-16T00:31:16.306Z,101316.19
2023-03-16T00:33:47.622Z,101316.19
2023-03-16T00:36:18.892Z,101313.50
2023-03-16T00:38:50.205Z,101312.75
2023-03-16T00:41:22.808Z,101313.63
2023-03-16T00:43:54.067Z,101313.78
2023-03-16T00:46:26.585Z,101303.09
2023-03-16T00:48:58.024Z,101281.16
2023-03-16T00:51:30.403Z,101308.69
2023-03-16T00:54:01.656Z,101313.00
2023-03-16T00:56:32.994Z,101319.09
2023-03-16T00:59:05.395Z,101308.63
2023-03-16T01:01:36.733Z,101311.22
2023-03-16T01:04:09.305Z,101271.31
2023-03-16T01:06:41.744Z,101310.34
2023-03-16T01:09:14.801Z,101294.59
2023-03-16T01:11:49.336Z,101306.03
2023-03-16T01:14:22.047Z,101294.72
2023-03-16T01:16:53.402Z,101294.66
2023-03-16T01:19:24.873Z,101295.75
2023-03-16T01:21:56.329Z,101289.78
2023-03-16T01:24:28.410Z,101293.28
2023-03-16T01:26:59.771Z,101276.47
2023-03-16T01:29:32.000Z,101285.59
2023-03-16T01:32:04.240Z,101289.16
2023-03-16T01:34:35.562Z,101288.38
2023-03-16T01:37:06.852Z,101284.94
2023-03-16T01:39:38.121Z,101287.50
2023-03-16T01:42:09.644Z,101285.97
2023-03-16T01:44:55.443Z,101281.72
2023-03-16T01:47:27.745Z,101261.22
2023-03-16T01:49:59.114Z,101290.66
2023-03-16T01:52:35.898Z,101288.00
2023-03-16T01:55:13.323Z,101292.63
2023-03-16T01:57:46.647Z,101285.75
2023-03-16T02:00:23.385Z,101280.66
2023-03-16T02:02:58.144Z,101278.91
2023-03-16T02:05:38.064Z,101280.72
2023-03-16T02:08:12.489Z,101280.72
2023-03-16T02:10:45.186Z,101275.41
2023-03-16T02:13:16.729Z,101270.25
2023-03-16T02:15:48.131Z,101263.75
2023-03-16T02:18:22.885Z,101266.72
2023-03-16T02:21:25.415Z,101263.22
2023-03-16T02:23:57.019Z,101241.16
2023-03-16T02:26:44.816Z,101269.19
2023-03-16T02:29:37.783Z,101254.41
2023-03-16T02:32:10.600Z,101260.44
2023-03-16T02:34:42.861Z,101251.69
2023-03-16T02:37:14.166Z,101254.28
2023-03-16T02:39:45.485Z,101234.63
2023-03-16T02:42:19.253Z,101218.72
2023-03-16T02:44:55.691Z,101240.91
2023-03-16T02:47:30.105Z,101258.72
2023-03-16T02:50:02.432Z,101263.84
2023-03-16T02:52:34.787Z,101263.84
2023-03-16T02:55:06.339Z,101263.84
2023-03-16T02:57:37.586Z,101265.56
2023-03-16T03:00:17.061Z,101266.41
2023-03-16T03:02:48.322Z,101261.19
2023-03-16T03:05:19.808Z,101250.78
2023-03-16T03:07:51.227Z,101259.41
2023-03-16T03:10:22.851Z,101261.13
2023-03-16T03:12:54.065Z,101260.31
2023-03-16T03:15:25.507Z,101262.84
2023-03-16T03:17:56.759Z,101261.97
2023-03-16T03:20:28.244Z,101267.09
2023-03-16T03:22:59.615Z,101269.72
2023-03-16T03:25:34.585Z,101271.56
2023-03-16T03:28:05.925Z,101268.25
2023-03-16T03:30:37.254Z,101265.88
2023-03-16T03:33:08.571Z,101266.25
2023-03-16T03:35:42.060Z,101268.38
2023-03-16T03:38:13.351Z,101268.72
2023-03-16T03:40:44.569Z,101263.75
2023-03-16T03:43:15.842Z,101263.94
2023-03-16T03:45:47.171Z,101267.56
2023-03-16T03:48:18.472Z,101262.41
2023-03-16T03:50:49.705Z,101257.19
2023-03-16T03:53:21.087Z,101264.06
2023-03-16T03:55:52.330Z,101265.72
2023-03-16T03:58:23.564Z,101263.13
2023-03-16T04:00:54.839Z,101257.91
2023-03-16T04:03:26.105Z,101257.13
2023-03-16T04:05:57.378Z,101253.75
2023-03-16T04:08:29.053Z,101259.91
2023-03-16T04:11:00.902Z,101258.31
2023-03-16T04:13:32.245Z,101253.09
2023-03-16T04:16:03.699Z,101255.72
2023-03-16T04:18:38.502Z,101251.22
2023-03-16T04:21:13.566Z,101255.41
2023-03-16T04:23:44.809Z,101252.63
2023-03-16T04:26:16.183Z,101248.16
2023-03-16T04:28:47.621Z,101251.56
2023-03-16T04:31:19.041Z,101248.00
2023-03-16T04:33:50.783Z,101251.38
2023-03-16T04:36:24.710Z,101253.03
2023-03-16T04:38:55.928Z,101250.31
2023-03-16T04:41:27.509Z,101247.66
2023-03-16T04:43:58.848Z,101246.72
2023-03-16T04:46:30.173Z,101242.34
2023-03-16T04:49:01.886Z,101238.00
2023-03-16T04:51:33.096Z,101238.78
2023-03-16T04:54:04.414Z,101246.59
2023-03-16T04:56:35.722Z,101253.47
2023-03-16T04:59:07.055Z,101242.97
2023-03-16T05:01:38.350Z,101233.47
2023-03-16T05:04:15.014Z,101238.78
2023-03-16T05:06:50.400Z,101224.00
2023-03-16T05:09:21.672Z,101216.19
2023-03-16T05:11:52.880Z,101218.06
2023-03-16T05:14:24.104Z,101207.88
2023-03-16T05:16:55.349Z,101211.59
2023-03-16T05:19:26.601Z,101210.31
2023-03-16T05:21:58.427Z,101207.31
2023-03-16T05:24:29.675Z,101215.56
2023-03-16T05:27:04.217Z,101215.19
2023-03-16T05:29:35.636Z,101217.47
2023-03-16T05:32:07.008Z,101219.69
2023-03-16T05:34:38.352Z,101217.47
2023-03-16T05:37:09.876Z,101215.28
2023-03-16T05:39:41.111Z,101221.75
2023-03-16T05:42:12.319Z,101225.50
2023-03-16T05:44:44.799Z,101230.13
2023-03-16T05:47:16.055Z,101234.72
2023-03-16T05:49:47.400Z,101227.97
2023-03-16T05:52:18.617Z,101230.72
2023-03-16T05:54:49.878Z,101227.38
2023-03-16T05:57:21.101Z,101222.25
2023-03-16T05:59:52.766Z,101234.56
2023-03-16T06:02:24.091Z,101232.97
2023-03-16T06:04:55.347Z,101232.22
2023-03-16T06:07:29.089Z,101228.06
2023-03-16T06:10:00.426Z,101225.69
2023-03-16T06:12:32.138Z,101226.81
2023-03-16T06:15:04.070Z,101233.16
2023-03-16T06:17:36.314Z,101230.69
2023-03-16T06:20:11.138Z,101227.31
2023-03-16T06:22:42.458Z,101229.13
2023-03-16T06:25:14.045Z,101236.25
2023-03-16T06:27:45.315Z,101245.22
2023-03-16T06:30:16.712Z,101248.03
2023-03-16T06:32:48.460Z,101249.19
2023-03-16T06:35:19.805Z,101246.78
2023-03-16T06:37:51.507Z,101257.47
2023-03-16T06:40:22.823Z,101249.88
2023-03-16T06:42:54.036Z,101257.13
2023-03-16T06:45:25.629Z,101257.44
2023-03-16T06:47:56.871Z,101247.38
2023-03-16T06:50:28.600Z,101254.72
2023-03-16T06:53:00.006Z,101249.88
2023-03-16T06:55:31.475Z,101255.44
2023-03-16T06:58:02.737Z,101249.69
2023-03-16T07:00:34.061Z,101251.72
2023-03-16T07:03:05.715Z,101261.69
2023-03-16T07:05:36.947Z,101267.28
2023-03-16T07:08:09.231Z,101262.25
2023-03-16T07:10:40.527Z,101267.75
2023-03-16T07:13:11.827Z,101269.78
2023-03-16T07:15:44.512Z,101280.53
2023-03-16T07:18:15.733Z,101285.13
2023-03-16T07:20:46.980Z,101281.81
2023-03-16T07:23:18.241Z,101287.16
2023-03-16T07:25:49.551Z,101295.16
2023-03-16T07:28:21.318Z,101298.75
2023-03-16T07:31:03.311Z,101295.44
2023-03-16T07:33:35.934Z,101294.72
2023-03-16T07:36:09.201Z,101296.59
2023-03-16T07:38:41.572Z,101293.25
2023-03-16T07:41:13.917Z,101293.38
2023-03-16T07:43:45.174Z,101295.28
2023-03-16T07:46:16.492Z,101291.94
2023-03-16T07:48:50.675Z,101246.97
2023-03-16T07:51:21.880Z,101285.22
2023-03-16T07:53:53.848Z,101279.31
2023-03-16T07:56:25.070Z,101284.72
2023-03-16T07:58:56.335Z,101283.06
2023-03-16T08:01:27.799Z,101278.78
2023-03-16T08:03:59.242Z,101283.31
2023-03-16T08:06:31.012Z,101279.16
2023-03-16T08:09:02.239Z,101287.25
2023-03-16T08:11:33.489Z,101284.81
2023-03-16T08:14:05.451Z,101282.44
2023-03-16T08:16:37.372Z,101279.06
2023-03-16T08:19:08.635Z,101281.81
2023-03-16T08:21:58.289Z,101279.34
2023-03-16T08:24:32.205Z,101274.22
2023-03-16T08:27:03.578Z,101276.09
2023-03-16T08:29:34.839Z,101273.53
2023-03-16T08:32:06.268Z,101274.50
2023-03-16T08:34:37.593Z,101280.72
2023-03-16T08:37:09.647Z,101272.84
2023-03-16T08:39:41.966Z,101279.94
2023-03-16T08:42:15.229Z,101273.81
2023-03-16T08:44:47.731Z,101281.78
2023-03-16T08:47:19.246Z,101281.78
2023-03-16T08:49:50.843Z,101273.00
2023-03-16T08:52:23.106Z,101275.66
2023-03-16T08:55:03.022Z,101268.63
2023-03-16T08:57:34.944Z,101274.81
2023-03-16T09:00:12.832Z,101275.69
2023-03-16T09:02:44.248Z,101266.00
2023-03-16T09:05:15.959Z,101275.69
2023-03-16T09:07:49.026Z,101277.47
2023-03-16T09:10:22.963Z,101265.09
2023-03-16T09:12:54.216Z,101265.97
2023-03-16T09:15:25.417Z,101265.94
2023-03-16T09:17:59.790Z,101264.16
2023-03-16T09:20:33.253Z,101253.53
2023-03-16T09:23:04.703Z,101262.34
2023-03-16T09:25:35.935Z,101261.38
2023-03-16T09:28:07.264Z,101264.84
2023-03-16T09:30:38.474Z,101255.09
2023-03-16T09:33:09.762Z,101255.94
2023-03-16T09:35:41.064Z,101247.03
2023-03-16T09:38:12.559Z,101242.53
2023-03-16T09:40:46.104Z,101246.00
2023-03-16T09:43:36.950Z,101251.22
2023-03-16T09:46:17.326Z,101241.38
2023-03-16T09:48:48.703Z,101248.31
2023-03-16T09:51:40.184Z,101241.97
2023-03-16T09:54:15.727Z,101242.78
2023-03-16T09:56:50.241Z,101250.75
2023-03-16T09:59:22.540Z,101234.84
2023-03-16T10:02:19.701Z,101227.78
2023-03-16T10:05:11.326Z,101236.56
2023-03-16T10:07:46.840Z,101235.59
2023-03-16T10:10:18.274Z,101239.84
2023-03-16T10:12:52.569Z,101233.53
2023-03-16T10:15:27.105Z,101240.63
2023-03-16T10:18:01.402Z,101229.13
2023-03-16T10:20:33.709Z,101229.06
2023-03-16T10:23:16.952Z,101229.88
2023-03-16T10:25:49.424Z,101229.75
2023-03-16T10:28:22.600Z,101233.09
2023-03-16T10:30:59.121Z,101229.28
2023-03-16T10:33:32.123Z,101230.94
2023-03-16T10:36:10.266Z,101230.88
2023-03-16T10:38:46.569Z,101226.44
2023-03-16T10:41:17.936Z,101224.59
2023-03-16T10:43:55.343Z,101215.72
2023-03-16T10:46:27.951Z,101220.06
2023-03-16T10:49:00.724Z,101214.59
2023-03-16T10:51:33.709Z,101210.75
2023-03-16T10:54:40.689Z,101200.81
2023-03-16T10:57:15.442Z,101204.31
2023-03-16T10:59:50.990Z,101205.19
2023-03-16T11:02:25.444Z,101202.81
2023-03-16T11:04:57.370Z,101198.72
2023-03-16T11:07:28.703Z,101192.81
2023-03-16T11:09:59.926Z,101194.59
2023-03-16T11:12:31.606Z,101196.28
2023-03-16T11:15:26.088Z,101185.50
2023-03-16T11:17:57.755Z,101185.41
2023-03-16T11:20:32.030Z,101184.31
2023-03-16T11:23:03.490Z,101191.03
2023-03-16T11:25:41.404Z,101187.97
2023-03-16T11:28:32.448Z,101184.34
2023-03-16T11:31:12.476Z,101174.69
2023-03-16T11:33:43.872Z,101173.81
2023-03-16T11:36:27.924Z,101163.34
2023-03-16T11:39:08.565Z,101166.13
2023-03-16T11:41:42.764Z,101165.41
2023-03-16T11:44:13.975Z,101148.47
2023-03-16T11:46:45.176Z,101153.53
2023-03-16T11:49:31.690Z,101148.13
2023-03-16T11:52:22.758Z,101150.63
2023-03-16T11:55:17.861Z,101105.59
2023-03-16T11:57:58.266Z,101138.94
2023-03-16T12:00:48.121Z,101128.69
2023-03-16T12:03:25.764Z,101135.91
2023-03-16T12:06:23.470Z,101124.53
2023-03-16T12:09:04.528Z,101129.69
2023-03-16T12:11:42.255Z,101125.81
2023-03-16T12:14:17.192Z,101130.94
2023-03-16T12:16:51.668Z,101121.88
2023-03-16T12:19:23.063Z,101114.44
2023-03-16T12:22:12.016Z,101115.84
2023-03-16T12:24:44.232Z,101106.13
2023-03-16T12:27:24.682Z,101103.63
2023-03-16T12:30:01.687Z,101098.50
2023-03-16T12:32:42.073Z,101075.72
2023-03-16T12:35:33.859Z,101092.69
2023-03-16T12:38:23.869Z,101082.22
2023-03-16T12:41:04.808Z,101082.38
2023-03-16T12:43:55.401Z,101086.03
2023-03-16T12:46:41.727Z,101077.13
2023-03-16T12:49:14.082Z,101071.13
2023-03-16T12:51:45.462Z,101054.41
2023-03-16T12:54:21.390Z,101063.28
2023-03-16T12:56:54.133Z,101066.81
2023-03-16T12:59:25.920Z,101060.50
2023-03-16T13:01:58.484Z,101052.41
2023-03-16T13:04:35.136Z,101049.50
2023-03-16T13:07:16.051Z,101051.13
2023-03-16T13:09:51.028Z,101049.25
2023-03-16T13:12:38.775Z,101035.84
2023-03-16T13:15:19.415Z,101035.84
2023-03-16T13:18:11.900Z,101032.63
2023-03-16T13:20:54.131Z,101027.59
2023-03-16T13:23:27.387Z,101030.44
2023-03-16T13:26:01.063Z,101019.84
2023-03-16T13:28:35.040Z,101021.72
2023-03-16T13:31:19.113Z,101020.88
2023-03-16T13:33:53.206Z,101020.91
2023-03-16T13:36:26.975Z,101018.28
2023-03-16T13:39:14.810Z,101014.81
2023-03-16T13:42:15.502Z,101020.28
2023-03-16T13:44:47.080Z,101023.22
2023-03-16T13:47:20.245Z,101019.00
2023-03-16T13:49:56.007Z,101002.22
2023-03-16T13:52:31.662Z,101012.06
2023-03-16T13:55:07.100Z,101009.41
2023-03-16T13:57:40.539Z,101008.47
2023-03-16T14:00:18.696Z,101004.88
2023-03-16T14:02:57.165Z,101007.56
2023-03-16T14:05:30.247Z,101005.03
2023-03-16T14:08:02.156Z,100990.81
2023-03-16T14:10:37.632Z,100991.53
2023-03-16T14:13:21.990Z,100989.50
2023-03-16T14:15:55.300Z,100987.13
2023-03-16T14:18:32.003Z,100977.44
2023-03-16T14:21:10.568Z,100982.09
2023-03-16T14:23:44.776Z,100968.34
2023-03-16T14:26:18.698Z,100965.59
2023-03-16T14:28:53.923Z,100948.78
2023-03-16T14:31:36.084Z,100951.88
2023-03-16T14:34:21.250Z,100947.25
2023-03-16T14:36:52.864Z,100943.66
2023-03-16T14:39:26.973Z,100941.50
2023-03-16T14:41:58.214Z,100938.25
2023-03-16T14:44:32.251Z,100928.66
2023-03-16T14:47:04.681Z,100928.81
2023-03-16T14:49:37.681Z,100911.94
2023-03-16T14:52:23.912Z,100927.03
2023-03-16T14:54:55.353Z,100925.22
2023-03-16T14:57:26.905Z,100920.84
2023-03-16T14:59:58.123Z,100902.13
2023-03-16T15:02:31.304Z,100903.97
2023-03-16T15:05:02.968Z,100902.41
2023-03-16T15:07:35.907Z,100901.69
2023-03-16T15:10:16.687Z,100892.13
2023-03-16T15:12:54.039Z,100897.56
2023-03-16T15:15:27.416Z,100887.00
2023-03-16T15:17:59.866Z,100879.03
2023-03-16T15:20:35.131Z,100882.56
2023-03-16T15:23:06.996Z,100879.00
2023-03-16T15:25:40.179Z,100875.50
2023-03-16T15:28:15.962Z,100868.56
2023-03-16T15:30:51.999Z,100866.09
2023-03-16T15:33:23.932Z,100875.94
2023-03-16T15:35:56.956Z,100876.00
2023-03-16T15:38:31.246Z,100863.75
2023-03-16T15:41:02.804Z,100859.41
2023-03-16T15:43:34.036Z,100849.75
2023-03-16T15:46:06.225Z,100845.38
2023-03-16T15:48:37.606Z,100861.34
2023-03-16T15:51:16.705Z,100866.78
2023-03-16T15:53:50.481Z,100858.03
2023-03-16T15:56:26.492Z,100845.63
2023-03-16T15:59:00.311Z,100850.03
2023-03-16T16:01:35.809Z,100858.94
2023-03-16T16:04:12.431Z,100836.06
2023-03-16T16:06:43.949Z,100832.66
2023-03-16T16:09:15.656Z,100840.66
2023-03-16T16:11:50.447Z,100837.25
2023-03-16T16:14:24.795Z,100841.78
2023-03-16T16:16:56.393Z,100849.81
2023-03-16T16:19:29.880Z,100851.59
2023-03-16T16:22:01.131Z,100854.25
2023-03-16T16:24:33.378Z,100841.91
2023-03-16T16:27:04.772Z,100841.03
2023-03-16T16:29:36.378Z,100825.25
2023-03-16T16:32:22.479Z,100829.78
2023-03-16T16:35:03.924Z,100834.28
2023-03-16T16:37:36.062Z,100836.97
2023-03-16T16:40:07.490Z,100820.25
2023-03-16T16:42:40.036Z,100817.66
2023-03-16T16:45:15.403Z,100815.06
2023-03-16T16:47:47.563Z,100812.50
2023-03-16T16:50:21.470Z,100803.75
2023-03-16T16:52:53.456Z,100804.75
2023-03-16T16:55:24.749Z,100804.81
2023-03-16T16:57:56.117Z,100810.16
2023-03-16T17:00:29.167Z,100804.94
2023-03-16T17:03:00.964Z,100810.38
2023-03-16T17:05:32.637Z,100807.81
2023-03-16T17:08:04.294Z,100799.91
2023-03-16T17:10:37.671Z,100797.34
2023-03-16T17:13:21.055Z,100792.13
2023-03-16T17:15:53.430Z,100807.16
2023-03-16T17:18:25.039Z,100809.84
2023-03-16T17:20:56.877Z,100811.66
2023-03-16T17:23:29.268Z,100812.59
2023-03-16T17:26:09.917Z,100817.03
2023-03-16T17:28:47.231Z,100819.69
2023-03-16T17:31:21.388Z,100817.06
2023-03-16T17:33:53.726Z,100812.72
2023-03-16T17:36:25.019Z,100807.47
2023-03-16T17:38:56.547Z,100796.91
2023-03-16T17:41:29.064Z,100803.13
2023-03-16T17:44:04.104Z,100804.06
2023-03-16T17:46:35.448Z,100807.59
2023-03-16T17:49:14.312Z,100812.03
2023-03-16T17:51:46.460Z,100815.59
2023-03-16T17:54:17.746Z,100816.47
2023-03-16T17:56:50.746Z,100808.56
2023-03-16T17:59:23.158Z,100796.25
2023-03-16T18:01:54.509Z,100781.28
2023-03-16T18:04:26.626Z,100789.22
2023-03-16T18:06:58.163Z,100781.31
2023-03-16T18:09:29.392Z,100777.81
2023-03-16T18:12:01.107Z,100776.06
2023-03-16T18:14:35.276Z,100783.13
2023-03-16T18:17:16.737Z,100773.44
2023-03-16T18:19:48.739Z,100768.19
2023-03-16T18:22:21.884Z,100764.69
2023-03-16T18:24:53.816Z,100762.06
2023-03-16T18:27:25.528Z,100760.31
2023-03-16T18:29:56.775Z,100760.31
2023-03-16T18:32:29.983Z,100750.66
2023-03-16T18:35:04.086Z,100748.03
2023-03-16T18:37:35.525Z,100743.63
2023-03-16T18:40:06.985Z,100742.78
2023-03-16T18:42:39.702Z,100752.50
2023-03-16T18:45:12.005Z,100746.34
2023-03-16T18:47:48.779Z,100699.88
2023-03-16T18:50:21.918Z,100736.75
2023-03-16T18:52:54.370Z,100736.78
2023-03-16T18:55:25.661Z,100735.97
2023-03-16T18:57:57.301Z,100742.13
2023-03-16T19:00:29.648Z,100744.78
2023-03-16T19:03:03.059Z,100743.09
2023-03-16T19:05:35.841Z,100751.03
2023-03-16T19:08:07.279Z,100750.19
2023-03-16T19:10:41.871Z,100750.22
2023-03-16T19:13:19.100Z,100751.13
2023-03-16T19:15:51.997Z,100752.88
2023-03-16T19:18:25.933Z,100758.16
2023-03-16T19:20:57.261Z,100755.53
2023-03-16T19:23:32.618Z,100752.91
2023-03-16T19:26:04.531Z,100762.59
2023-03-16T19:28:37.103Z,100756.44
2023-03-16T19:31:17.560Z,100695.81
2023-03-16T19:33:49.275Z,100744.13
2023-03-16T19:36:25.140Z,100732.69
2023-03-16T19:38:56.654Z,100720.38
2023-03-16T19:41:27.921Z,100712.47
2023-03-16T19:44:05.949Z,100722.13
2023-03-16T19:46:37.262Z,100714.19
2023-03-16T19:49:14.536Z,100712.41
2023-03-16T19:51:46.459Z,100708.88
2023-03-16T19:54:40.260Z,100703.59
2023-03-16T19:57:13.635Z,100698.31
2023-03-16T19:59:46.571Z,100693.91
2023-03-16T20:02:29.474Z,100686.88
2023-03-16T20:05:00.779Z,100689.50
2023-03-16T20:07:37.756Z,100687.75
2023-03-16T20:10:11.663Z,100692.16
2023-03-16T20:12:42.999Z,100701.84
2023-03-16T20:15:15.859Z,100698.31
2023-03-16T20:17:47.895Z,100689.53
2023-03-16T20:20:21.801Z,100700.06
2023-03-16T20:22:55.178Z,100687.78
2023-03-16T20:25:31.359Z,100670.19
2023-03-16T20:28:03.794Z,100600.84
2023-03-16T20:30:35.296Z,100656.97
2023-03-16T20:33:11.574Z,100653.47
2023-03-16T20:35:43.067Z,100652.59
2023-03-16T20:38:14.564Z,100646.44
2023-03-16T20:40:47.480Z,100634.16
2023-03-16T20:43:44.854Z,100643.81
2023-03-16T20:46:19.494Z,100643.84
2023-03-16T20:48:50.908Z,100642.97
2023-03-16T20:51:23.426Z,100647.34
2023-03-16T20:53:54.648Z,100634.19
2023-03-16T20:56:26.644Z,100624.53
2023-03-16T20:58:58.962Z,100621.00
2023-03-16T21:01:30.239Z,100610.44
2023-03-16T21:04:01.820Z,100620.13
2023-03-16T21:06:33.674Z,100624.53
2023-03-16T21:09:04.933Z,100625.38
2023-03-16T21:11:37.258Z,100618.34
2023-03-16T21:14:13.990Z,100616.63
2023-03-16T21:16:45.257Z,100605.19
2023-03-16T21:19:17.864Z,100594.66
2023-03-16T21:21:49.474Z,100599.94
2023-03-16T21:24:21.125Z,100590.28
2023-03-16T21:26:53.074Z,100590.28
2023-03-16T21:29:24.427Z,100594.69
2023-03-16T21:31:55.915Z,100587.69
2023-03-16T21:34:34.376Z,100590.31
2023-03-16T21:37:12.537Z,100594.72
2023-03-16T21:39:44.216Z,100587.69
2023-03-16T21:42:17.163Z,100584.19
2023-03-16T21:44:48.398Z,100572.75
2023-03-16T21:47:24.757Z,100569.22
2023-03-16T21:49:56.170Z,100564.81
2023-03-16T21:52:28.397Z,100571.84
2023-03-16T21:55:00.601Z,100577.09
2023-03-16T21:57:32.262Z,100562.16
2023-03-16T22:00:04.950Z,100561.28
2023-03-16T22:02:37.070Z,100548.09
2023-03-16T22:05:26.888Z,100558.66
2023-03-16T22:07:59.403Z,100560.41
2023-03-16T22:10:31.404Z,100556.91
2023-03-16T22:13:02.765Z,100555.16
2023-03-16T22:15:33.985Z,100561.31
2023-03-16T22:18:13.217Z,100554.28
2023-03-16T22:20:44.460Z,100551.63
2023-03-16T22:23:35.980Z,100551.63
2023-03-16T22:26:10.786Z,100549.88
2023-03-16T22:28:42.275Z,100552.53
2023-03-16T22:31:16.399Z,100551.66
2023-03-16T22:33:48.617Z,100548.13
2023-03-16T22:36:21.620Z,100546.41
2023-03-16T22:38:56.178Z,100549.03
2023-03-16T22:41:29.004Z,100545.53
2023-03-16T22:44:01.542Z,100559.63
2023-03-16T22:46:32.807Z,100556.13
2023-03-16T22:49:07.031Z,100547.34
2023-03-16T22:51:38.453Z,100536.81
2023-03-16T22:54:13.939Z,100529.78
2023-03-16T22:56:46.847Z,100535.06
2023-03-16T22:59:20.692Z,100532.44
2023-03-16T23:01:52.036Z,100525.41
2023-03-16T23:04:25.206Z,100526.28
2023-03-16T23:06:57.235Z,100519.28
2023-03-16T23:09:28.838Z,100514.94
2023-03-16T23:12:03.074Z,100500.03
2023-03-16T23:14:35.346Z,100497.41
2023-03-16T23:17:15.264Z,100499.16
2023-03-16T23:19:47.946Z,100514.97
2023-03-16T23:22:19.288Z,100522.88
2023-03-16T23:24:50.488Z,100515.00
2023-03-16T23:27:22.702Z,100512.34
2023-03-16T23:29:54.058Z,100463.22
2023-03-16T23:32:26.357Z,100516.75
2023-03-16T23:34:58.962Z,100496.53
2023-03-16T23:37:30.760Z,100495.69
2023-03-16T23:40:03.679Z,100502.72
2023-03-16T23:42:35.174Z,100498.31
2023-03-16T23:45:29.589Z,100496.56
2023-03-16T23:48:04.793Z,100491.31
2023-03-16T23:50:36.563Z,100492.19
2023-03-16T23:53:12.291Z,100486.03
2023-03-16T23:55:44.127Z,100482.53
2023-03-16T23:58:16.178Z,100494.81
